createdAt,value
2024-03-27T00:00:59.596Z,97093.56
2024-03-27T00:06:01.630Z,97092.54
2024-03-27T00:11:04.215Z,97097.23
2024-03-27T00:16:06.183Z,97089.05
2024-03-27T00:21:08.013Z,97082.98
2024-03-27T00:26:09.650Z,97082.34
2024-03-27T00:31:11.405Z,97068.98
2024-03-27T00:36:13.170Z,97063.63
2024-03-27T00:41:14.976Z,97053.73
2024-03-27T00:46:16.716Z,97039.79
2024-03-27T00:51:18.765Z,97041.56
2024-03-27T00:56:22.265Z,97034.63
2024-03-27T01:01:25.010Z,97029.85
2024-03-27T01:06:26.799Z,97025.65
2024-03-27T01:11:28.447Z,97018.26
2024-03-27T01:16:30.653Z,97013.54
2024-03-27T01:21:32.428Z,97009.39
2024-03-27T01:26:34.184Z,97001.88
2024-03-27T01:31:35.926Z,96996.81
2024-03-27T01:36:37.579Z,96998.05
2024-03-27T01:41:39.246Z,96991.77
2024-03-27T01:46:40.956Z,96985.17
2024-03-27T01:51:43.378Z,96979.31
2024-03-27T01:56:46.629Z,96970.64
2024-03-27T02:01:49.335Z,96968.46
2024-03-27T02:06:52.848Z,96968.79
2024-03-27T02:11:54.880Z,96971.13
2024-03-27T02:17:02.608Z,96962.91
2024-03-27T02:22:07.794Z,96948.79
2024-03-27T02:27:09.572Z,96943.06
2024-03-27T02:32:11.243Z,96940.09
2024-03-27T02:37:12.913Z,96936.85
2024-03-27T02:42:14.624Z,96940.66
2024-03-27T02:47:16.339Z,96943.39
2024-03-27T02:52:18.186Z,96940.77
2024-03-27T02:57:19.911Z,96933.53
2024-03-27T03:02:21.594Z,96928.27
2024-03-27T03:07:23.206Z,96932.58
2024-03-27T03:12:25.316Z,96929.36
2024-03-27T03:17:27.106Z,96925.45
2024-03-27T03:22:28.852Z,96920.06
2024-03-27T03:27:30.478Z,96925.30
2024-03-27T03:32:32.132Z,96916.31
2024-03-27T03:37:33.776Z,96909.86
2024-03-27T03:42:35.695Z,96913.04
2024-03-27T03:47:37.339Z,96915.59
2024-03-27T03:52:39.047Z,96907.23
2024-03-27T03:57:42.108Z,96907.34
2024-03-27T04:02:43.731Z,96914.64
2024-03-27T04:07:48.562Z,96909.33
2024-03-27T04:12:50.276Z,96903.96
2024-03-27T04:17:51.954Z,96903.04
2024-03-27T04:22:53.671Z,96904.29
2024-03-27T04:27:55.884Z,96901.35
2024-03-27T04:32:57.552Z,96895.54
2024-03-27T04:37:59.581Z,96890.90
2024-03-27T04:43:01.277Z,96884.45
2024-03-27T04:48:03.153Z,96877.00
2024-03-27T04:53:04.999Z,96877.02
2024-03-27T04:58:06.619Z,96875.40
2024-03-27T05:03:08.274Z,96882.30
2024-03-27T05:08:09.942Z,96882.86
2024-03-27T05:13:12.365Z,96885.20
2024-03-27T05:18:14.015Z,96877.99
2024-03-27T05:23:16.237Z,96877.02
2024-03-27T05:28:17.899Z,96867.86
2024-03-27T05:33:19.706Z,96859.68
2024-03-27T05:38:22.191Z,96856.52
2024-03-27T05:43:23.854Z,96861.85
2024-03-27T05:48:25.751Z,96861.45
2024-03-27T05:53:27.479Z,96860.83
2024-03-27T05:58:29.315Z,96857.72
2024-03-27T06:03:30.989Z,96854.20
2024-03-27T06:08:33.364Z,96850.72
2024-03-27T06:13:35.661Z,96849.17
2024-03-27T06:18:37.407Z,96847.80
2024-03-27T06:23:39.085Z,96847.24
2024-03-27T06:28:40.958Z,96835.77
2024-03-27T06:33:42.609Z,96836.11
2024-03-27T06:38:44.307Z,96837.70
2024-03-27T06:43:48.524Z,96839.80
2024-03-27T06:48:57.779Z,96839.84
2024-03-27T06:53:59.492Z,96837.44
2024-03-27T06:59:01.343Z,96823.33
2024-03-27T07:04:04.300Z,96814.17
2024-03-27T07:09:06.165Z,96809.34
2024-03-27T07:14:07.888Z,96810.60
2024-03-27T07:19:09.622Z,96804.52
2024-03-27T07:24:11.305Z,96803.48
2024-03-27T07:29:12.937Z,96795.01
2024-03-27T07:34:15.701Z,96791.10
2024-03-27T07:39:18.435Z,96788.23
2024-03-27T07:44:20.420Z,96794.24
2024-03-27T07:49:22.122Z,96801.61
2024-03-27T07:54:23.862Z,96804.70
2024-03-27T07:59:25.516Z,96796.73
2024-03-27T08:04:27.263Z,96802.18
2024-03-27T08:09:28.983Z,96799.45
2024-03-27T08:14:31.109Z,96805.44
2024-03-27T08:19:33.597Z,96809.98
2024-03-27T08:24:35.971Z,96798.83
2024-03-27T08:29:37.678Z,96808.63
2024-03-27T08:34:39.574Z,96799.80
2024-03-27T08:39:43.290Z,96786.70
2024-03-27T08:44:45.044Z,96777.52
2024-03-27T08:49:46.648Z,96785.47
2024-03-27T08:54:48.380Z,96786.11
2024-03-27T08:59:50.054Z,96791.76
2024-03-27T09:04:52.300Z,96789.14
2024-03-27T09:09:54.143Z,96790.99
2024-03-27T09:14:55.795Z,96784.66
2024-03-27T09:19:58.042Z,96779.88
2024-03-27T09:24:59.893Z,96778.87
2024-03-27T09:30:03.549Z,96784.10
2024-03-27T09:35:06.405Z,96783.77
2024-03-27T09:40:09.459Z,96783.69
2024-03-27T09:45:12.321Z,96785.27
2024-03-27T09:50:14.786Z,96787.73
2024-03-27T09:55:19.579Z,96790.15
2024-03-27T10:00:21.288Z,96783.89
2024-03-27T10:05:24.932Z,96784.81
2024-03-27T10:10:27.236Z,96782.66
2024-03-27T10:15:29.227Z,96783.69
2024-03-27T10:20:31.926Z,96787.91
2024-03-27T10:25:34.129Z,96790.17
2024-03-27T10:30:36.096Z,96787.96
2024-03-27T10:35:39.058Z,96784.54
2024-03-27T10:40:41.248Z,96786.48
2024-03-27T10:45:44.848Z,96787.02
2024-03-27T10:50:48.039Z,96787.71
2024-03-27T10:55:50.943Z,96776.95
2024-03-27T11:00:52.941Z,96778.02
2024-03-27T11:05:54.854Z,96774.67
2024-03-27T11:11:10.688Z,96775.37
2024-03-27T11:16:13.592Z,96768.57
2024-03-27T11:21:15.992Z,96768.66
2024-03-27T11:26:33.346Z,96760.06
2024-03-27T11:31:41.201Z,96755.90
2024-03-27T11:36:43.583Z,96745.08
2024-03-27T11:41:49.711Z,96744.13
2024-03-27T11:46:51.600Z,96740.21
2024-03-27T11:51:53.385Z,96737.27
2024-03-27T11:56:55.396Z,96729.10
2024-03-27T12:01:57.158Z,96730.33
2024-03-27T12:06:59.181Z,96734.19
2024-03-27T12:12:01.784Z,96728.94
2024-03-27T12:17:13.374Z,96718.34
2024-03-27T12:22:15.173Z,96709.01
2024-03-27T12:27:24.497Z,96713.20
2024-03-27T12:32:28.514Z,96711.27
2024-03-27T12:37:30.344Z,96702.11
2024-03-27T12:42:32.242Z,96707.05
2024-03-27T12:47:34.007Z,96705.02
2024-03-27T13:04:42.220Z,96693.13
2024-03-27T13:09:44.414Z,96682.07
2024-03-27T13:14:46.175Z,96673.23
2024-03-27T13:19:50.066Z,96670.40
2024-03-27T13:24:53.777Z,96664.42
2024-03-27T13:29:55.592Z,96651.83
2024-03-27T13:34:58.510Z,96658.14
2024-03-27T13:40:00.320Z,96658.24
2024-03-27T13:45:02.122Z,96652.08
2024-03-27T13:50:05.648Z,96648.58
2024-03-27T13:55:08.213Z,96637.23
2024-03-27T14:00:13.046Z,96635.17
2024-03-27T14:05:15.183Z,96624.09
2024-03-27T14:10:16.974Z,96616.06
2024-03-27T14:15:20.700Z,96612.73
2024-03-27T14:20:22.672Z,96609.69
2024-03-27T14:25:24.564Z,96609.11
2024-03-27T14:30:26.514Z,96605.23
2024-03-27T14:35:28.792Z,96596.54
2024-03-27T14:40:30.565Z,96593.21
2024-03-27T14:45:32.450Z,96589.63
2024-03-27T14:50:34.486Z,96591.31
2024-03-27T14:55:36.267Z,96589.75
2024-03-27T15:00:38.056Z,96583.52
2024-03-27T15:05:39.810Z,96585.48
2024-03-27T15:10:41.668Z,96573.38
2024-03-27T15:15:43.455Z,96574.23
2024-03-27T15:20:45.884Z,96577.19
2024-03-27T15:25:47.764Z,96578.77
2024-03-27T15:30:49.488Z,96570.99
2024-03-27T15:35:51.431Z,96570.15
2024-03-27T15:40:57.457Z,96569.05
2024-03-27T15:45:59.212Z,96571.27
2024-03-27T15:51:01.038Z,96574.54
2024-03-27T15:56:02.650Z,96580.23
2024-03-27T16:01:04.541Z,96586.27
2024-03-27T16:06:06.420Z,96585.45
2024-03-27T16:11:09.203Z,96588.05
2024-03-27T16:16:10.950Z,96585.41
2024-03-27T16:21:12.751Z,96582.95
2024-03-27T16:26:14.515Z,96582.33
2024-03-27T16:31:16.301Z,96574.41
2024-03-27T16:36:18.115Z,96576.13
2024-03-27T16:41:19.982Z,96573.77
2024-03-27T16:46:21.818Z,96567.40
2024-03-27T16:51:23.671Z,96572.92
2024-03-27T16:56:26.975Z,96564.81
2024-03-27T17:01:28.840Z,96569.24
2024-03-27T17:06:31.141Z,96575.27
2024-03-27T17:11:32.923Z,96592.79
2024-03-27T17:16:34.657Z,96599.94
2024-03-27T17:21:36.700Z,96596.57
2024-03-27T17:26:38.633Z,96594.61
2024-03-27T17:31:40.388Z,96599.61
2024-03-27T17:36:42.150Z,96596.20
2024-03-27T17:41:43.818Z,96600.70
2024-03-27T17:46:47.839Z,96602.57
2024-03-27T17:51:49.680Z,96606.38
2024-03-27T17:56:51.467Z,96616.34
2024-03-27T18:01:53.214Z,96619.09
2024-03-27T18:06:54.968Z,96614.15
2024-03-27T18:11:58.593Z,96611.13
2024-03-27T18:17:02.881Z,96607.93
2024-03-27T18:22:05.077Z,96605.74
2024-03-27T18:27:06.968Z,96604.31
2024-03-27T18:32:08.914Z,96608.05
2024-03-27T18:37:12.531Z,96608.10
2024-03-27T18:42:14.244Z,96606.08
2024-03-27T18:47:16.823Z,96606.34
2024-03-27T18:52:18.628Z,96603.22
2024-03-27T18:57:21.987Z,96600.79
2024-03-27T19:02:25.151Z,96604.89
2024-03-27T19:07:29.015Z,96597.98
2024-03-27T19:12:33.064Z,96592.67
2024-03-27T19:17:34.917Z,96592.64
2024-03-27T19:22:37.099Z,96601.00
2024-03-27T19:27:38.840Z,96602.02
2024-03-27T19:32:40.670Z,96601.39
2024-03-27T19:37:44.768Z,96592.36
2024-03-27T19:42:46.508Z,96592.63
2024-03-27T19:47:48.319Z,96590.69
2024-03-27T19:52:50.155Z,96591.36
2024-03-27T19:57:51.949Z,96598.17
2024-03-27T20:02:54.061Z,96596.75
2024-03-27T20:07:55.906Z,96588.52
2024-03-27T20:12:57.748Z,96580.16
2024-03-27T20:17:59.546Z,96568.86
2024-03-27T20:23:01.595Z,96560.38
2024-03-27T20:28:03.515Z,96551.45
2024-03-27T20:33:07.009Z,96550.25
2024-03-27T20:38:08.772Z,96545.38
2024-03-27T20:43:12.288Z,96533.57
2024-03-27T20:48:14.060Z,96521.45
2024-03-27T20:53:16.506Z,96520.28
2024-03-27T20:58:18.263Z,96520.23
2024-03-27T21:03:19.981Z,96515.95
2024-03-27T21:08:21.809Z,96519.96
2024-03-27T21:13:23.829Z,96515.71
2024-03-27T21:18:26.495Z,96508.03
2024-03-27T21:23:28.483Z,96499.66
2024-03-27T21:28:30.223Z,96487.16
2024-03-27T21:33:32.106Z,96476.32
2024-03-27T21:38:33.799Z,96477.34
2024-03-27T21:43:35.557Z,96473.54
2024-03-27T21:48:40.370Z,96469.52
2024-03-27T21:53:42.847Z,96472.64
2024-03-27T21:58:45.254Z,96471.58
2024-03-27T22:03:47.133Z,96457.30
2024-03-27T22:08:52.697Z,96447.45
2024-03-27T22:13:54.558Z,96449.54
2024-03-27T22:18:56.748Z,96447.34
2024-03-27T22:23:58.489Z,96440.15
2024-03-27T22:29:00.293Z,96431.45
2024-03-27T22:34:02.128Z,96425.36
2024-03-27T22:39:04.235Z,96422.73
2024-03-27T22:44:06.061Z,96412.77
2024-03-27T22:49:08.184Z,96404.59
2024-03-27T22:54:09.943Z,96392.73
2024-03-27T22:59:11.789Z,96381.31
2024-03-27T23:04:15.791Z,96381.35
2024-03-27T23:09:17.512Z,96374.44
2024-03-27T23:14:19.243Z,96373.23
2024-03-27T23:19:21.003Z,96365.80
2024-03-27T23:24:22.750Z,96356.32
2024-03-27T23:29:24.491Z,96353.74
2024-03-27T23:34:26.299Z,96355.61
2024-03-27T23:39:31.309Z,96348.92
2024-03-27T23:44:33.125Z,96343.38
2024-03-27T23:49:35.014Z,96347.89
2024-03-27T23:54:36.796Z,96346.22
2024-03-27T23:59:38.881Z,96337.27
